createdAt,value
2022-11-04T00:01:47.054Z,3.40
2022-11-04T00:04:16.822Z,7.25
2022-11-04T00:06:44.700Z,8.15
2022-11-04T00:09:17.043Z,4.63
2022-11-04T00:12:03.406Z,4.47
2022-11-04T00:14:32.040Z,5.22
2022-11-04T00:17:19.418Z,8.05
2022-11-04T00:20:10.568Z,1.75
2022-11-04T00:22:58.003Z,6.82
2022-11-04T00:25:44.404Z,6.47
2022-11-04T00:28:36.028Z,5.13
2022-11-04T00:31:26.536Z,5.93
2022-11-04T00:33:55.910Z,4.38
2022-11-04T00:36:27.063Z,4.45
2022-11-04T00:38:54.585Z,4.53
2022-11-04T00:41:30.285Z,5.30
2022-11-04T00:44:00.481Z,3.78
2022-11-04T00:46:29.658Z,5.82
2022-11-04T00:48:57.142Z,6.25
2022-11-04T00:51:25.026Z,2.80
2022-11-04T00:53:52.735Z,5.80
2022-11-04T00:56:20.496Z,4.22
2022-11-04T00:58:49.787Z,3.50
2022-11-04T01:01:18.590Z,5.95
2022-11-04T01:03:47.845Z,3.28
2022-11-04T01:06:15.947Z,6.65
2022-11-04T01:08:43.662Z,1.92
2022-11-04T01:11:11.768Z,4.95
2022-11-04T01:13:40.310Z,4.22
2022-11-04T01:16:10.525Z,5.40
2022-11-04T01:18:38.799Z,5.22
2022-11-04T01:21:09.051Z,4.68
2022-11-04T01:23:37.042Z,3.72
2022-11-04T01:26:09.043Z,5.20
2022-11-04T01:28:36.542Z,5.80
2022-11-04T01:31:13.646Z,7.82
2022-11-04T01:33:41.678Z,5.68
2022-11-04T01:36:10.847Z,3.67
2022-11-04T01:38:38.599Z,3.78
2022-11-04T01:41:07.688Z,2.80
2022-11-04T01:43:55.775Z,3.42
2022-11-04T01:46:43.386Z,2.08
2022-11-04T01:49:29.762Z,3.78
2022-11-04T01:52:05.087Z,2.67
2022-11-04T01:54:34.329Z,2.67
2022-11-04T01:57:05.292Z,1.63
2022-11-04T01:59:39.348Z,3.63
2022-11-04T02:02:07.677Z,6.85
2022-11-04T02:04:36.652Z,6.32
2022-11-04T02:07:08.167Z,5.38
2022-11-04T02:09:37.776Z,3.05
2022-11-04T02:12:24.053Z,1.05
2022-11-04T02:14:53.264Z,2.33
2022-11-04T02:17:20.697Z,2.45
2022-11-04T02:20:15.770Z,4.55
2022-11-04T02:22:55.275Z,2.88
2022-11-04T02:25:41.614Z,2.83
2022-11-04T02:28:27.051Z,0.68
2022-11-04T02:31:03.784Z,3.72
2022-11-04T02:34:00.948Z,2.83
2022-11-04T02:36:34.472Z,2.17
2022-11-04T02:39:07.492Z,4.63
2022-11-04T02:42:05.435Z,5.35
2022-11-04T02:44:39.978Z,3.83
2022-11-04T02:50:03.423Z,3.88
2022-11-04T02:52:44.853Z,7.75
2022-11-04T02:55:33.761Z,8.07
2022-11-04T02:58:05.634Z,8.88
2022-11-04T03:00:37.305Z,5.18
2022-11-04T03:03:12.597Z,7.80
2022-11-04T03:05:42.721Z,10.70
2022-11-04T03:08:18.481Z,9.38
2022-11-04T03:10:59.521Z,9.77
2022-11-04T03:13:42.552Z,14.07
2022-11-04T03:17:00.077Z,14.25
2022-11-04T03:19:36.545Z,16.38
2022-11-04T03:22:26.431Z,14.63
2022-11-04T03:24:55.443Z,14.70
2022-11-04T03:27:46.117Z,15.13
2022-11-04T03:30:22.518Z,12.23
2022-11-04T03:33:00.958Z,16.55
2022-11-04T03:35:29.274Z,16.17
2022-11-04T03:37:58.330Z,12.73
2022-11-04T03:40:27.156Z,11.77
2022-11-04T03:43:01.502Z,17.48
2022-11-04T03:45:29.601Z,16.50
2022-11-04T03:47:58.396Z,11.93
2022-11-04T03:50:39.678Z,13.52
2022-11-04T03:53:08.045Z,10.25
2022-11-04T03:55:47.626Z,13.68
2022-11-04T03:58:37.217Z,12.85
2022-11-04T04:01:34.426Z,9.35
2022-11-04T04:04:10.953Z,9.52
2022-11-04T04:06:39.817Z,8.82
2022-11-04T04:09:35.949Z,10.85
2022-11-04T04:12:42.649Z,7.82
2022-11-04T04:15:21.195Z,13.57
2022-11-04T04:18:06.060Z,9.30
2022-11-04T04:20:38.086Z,8.23
2022-11-04T04:23:29.816Z,6.90
2022-11-04T04:26:19.744Z,6.95
2022-11-04T04:28:48.293Z,7.53
2022-11-04T04:31:39.802Z,4.82
2022-11-04T04:34:08.447Z,8.00
2022-11-04T04:36:53.523Z,7.60
2022-11-04T04:39:43.474Z,6.75
2022-11-04T04:42:29.958Z,8.82
2022-11-04T04:45:01.686Z,11.80
2022-11-04T04:47:47.672Z,8.35
2022-11-04T04:50:17.479Z,6.35
2022-11-04T04:52:48.062Z,5.65
2022-11-04T04:55:15.998Z,6.50
2022-11-04T04:57:43.987Z,9.90
2022-11-04T05:00:17.391Z,9.90
2022-11-04T05:02:45.153Z,19.17
2022-11-04T05:07:46.174Z,15.18
2022-11-04T05:10:16.181Z,9.98
2022-11-04T05:13:02.685Z,13.55
2022-11-04T05:15:31.649Z,18.70
2022-11-04T05:18:01.762Z,17.40
2022-11-04T05:20:30.585Z,12.57
2022-11-04T05:22:58.248Z,15.63
2022-11-04T05:25:25.838Z,23.98
2022-11-04T05:27:53.486Z,17.50
2022-11-04T05:30:21.194Z,15.85
2022-11-04T05:32:48.721Z,23.70
2022-11-04T05:35:16.342Z,20.05
2022-11-04T05:37:44.164Z,15.65
2022-11-04T05:40:12.342Z,19.13
2022-11-04T05:42:39.878Z,22.27
2022-11-04T05:45:08.001Z,17.98
2022-11-04T05:47:36.031Z,19.40
2022-11-04T05:50:03.632Z,14.48
2022-11-04T05:52:31.255Z,20.77
2022-11-04T05:54:58.787Z,23.10
2022-11-04T05:57:26.590Z,23.95
2022-11-04T05:59:54.387Z,18.10
2022-11-04T06:02:22.148Z,22.98
2022-11-04T06:04:49.817Z,19.05
2022-11-04T06:07:17.431Z,16.55
2022-11-04T06:09:45.224Z,14.98
2022-11-04T06:12:17.867Z,17.65
2022-11-04T06:14:45.672Z,17.35
2022-11-04T06:17:17.968Z,23.90
2022-11-04T06:19:45.644Z,19.40
2022-11-04T06:22:15.258Z,16.67
2022-11-04T06:24:43.278Z,13.65
2022-11-04T06:27:11.674Z,12.10
2022-11-04T06:29:42.579Z,15.48
2022-11-04T06:32:17.094Z,13.10
2022-11-04T06:37:13.187Z,11.45
2022-11-04T06:39:40.744Z,13.13
2022-11-04T06:42:08.454Z,17.10
2022-11-04T06:44:37.205Z,11.00
2022-11-04T06:47:04.798Z,10.35
2022-11-04T06:49:32.328Z,8.93
2022-11-04T06:52:01.231Z,8.27
2022-11-04T06:54:28.829Z,8.48
2022-11-04T06:56:56.450Z,7.30
2022-11-04T06:59:24.236Z,4.05
2022-11-04T07:01:52.498Z,4.32
2022-11-04T07:04:20.031Z,6.32
2022-11-04T07:06:47.560Z,6.38
2022-11-04T07:09:16.429Z,5.38
2022-11-04T07:11:45.618Z,7.10
2022-11-04T07:14:13.638Z,5.50
2022-11-04T07:16:41.214Z,5.70
2022-11-04T07:19:08.944Z,5.15
2022-11-04T07:21:36.790Z,7.43
2022-11-04T07:24:04.447Z,7.47
2022-11-04T07:26:32.069Z,5.82
2022-11-04T07:29:01.234Z,5.22
2022-11-04T07:31:28.993Z,6.30
2022-11-04T07:33:56.585Z,4.68
2022-11-04T07:36:24.176Z,11.70
2022-11-04T07:38:51.757Z,11.57
2022-11-04T07:41:19.930Z,6.75
2022-11-04T07:43:52.062Z,6.03
2022-11-04T07:46:20.692Z,11.90
2022-11-04T07:48:48.629Z,14.27
2022-11-04T07:51:19.087Z,8.43
2022-11-04T07:53:46.946Z,9.55
2022-11-04T07:56:14.848Z,10.30
2022-11-04T07:58:44.151Z,8.55
2022-11-04T08:01:14.909Z,11.02
2022-11-04T08:03:43.078Z,7.22
2022-11-04T08:06:13.572Z,8.77
2022-11-04T08:08:43.641Z,13.75
2022-11-04T08:11:18.261Z,8.02
2022-11-04T08:16:17.637Z,8.00
2022-11-04T08:18:46.366Z,8.40
2022-11-04T08:21:14.637Z,6.88
2022-11-04T08:23:42.452Z,14.68
2022-11-04T08:26:12.366Z,9.77
2022-11-04T08:28:40.869Z,9.63
2022-11-04T08:31:14.276Z,5.45
2022-11-04T08:33:42.976Z,7.78
2022-11-04T08:36:23.483Z,10.27
2022-11-04T08:38:52.994Z,17.13
2022-11-04T08:41:29.289Z,12.48
2022-11-04T08:44:01.135Z,4.43
2022-11-04T08:46:29.995Z,8.07
2022-11-04T08:48:57.644Z,14.50
2022-11-04T08:51:27.032Z,10.25
2022-11-04T08:53:55.224Z,13.05
2022-11-04T08:56:26.476Z,13.35
2022-11-04T08:58:54.325Z,7.18
2022-11-04T09:01:22.542Z,10.23
2022-11-04T09:03:50.883Z,7.78
2022-11-04T09:06:23.902Z,11.20
2022-11-04T09:08:52.397Z,10.02
2022-11-04T09:11:20.137Z,7.82
2022-11-04T09:13:47.926Z,6.75
2022-11-04T09:16:16.832Z,11.15
2022-11-04T09:18:44.503Z,4.15
2022-11-04T09:21:12.373Z,11.52
2022-11-04T09:23:40.165Z,5.55
2022-11-04T09:26:11.674Z,7.72
2022-11-04T09:28:40.477Z,12.55
2022-11-04T09:31:13.207Z,20.95
2022-11-04T09:33:41.032Z,8.63
2022-11-04T09:36:10.549Z,11.82
2022-11-04T09:38:40.027Z,12.77
2022-11-04T09:41:26.524Z,7.80
2022-11-04T09:44:06.751Z,13.52
2022-11-04T09:46:35.229Z,6.85
2022-11-04T09:49:06.141Z,12.55
2022-11-04T09:51:53.231Z,15.77
2022-11-04T09:54:23.081Z,14.43
2022-11-04T09:56:53.373Z,11.48
2022-11-04T09:59:30.697Z,9.50
2022-11-04T10:02:21.895Z,6.82
2022-11-04T10:04:55.738Z,8.13
2022-11-04T10:08:05.245Z,7.68
2022-11-04T10:11:07.805Z,9.70
2022-11-04T10:13:44.366Z,9.00
2022-11-04T10:16:50.016Z,15.02
2022-11-04T10:22:09.242Z,8.30
2022-11-04T10:24:36.770Z,7.63
2022-11-04T10:27:11.073Z,9.40
2022-11-04T10:29:47.368Z,8.25
2022-11-04T10:32:46.241Z,11.27
2022-11-04T10:35:13.754Z,9.15
2022-11-04T10:37:41.365Z,9.88
2022-11-04T10:40:24.274Z,11.30
2022-11-04T10:42:53.000Z,14.60
2022-11-04T10:45:26.456Z,5.63
2022-11-04T10:48:14.580Z,6.38
2022-11-04T10:50:56.720Z,8.13
2022-11-04T10:53:32.878Z,10.20
2022-11-04T10:56:21.013Z,6.90
2022-11-04T10:58:48.920Z,11.60
2022-11-04T11:01:31.312Z,18.08
2022-11-04T11:04:00.214Z,16.05
2022-11-04T11:06:37.677Z,8.77
2022-11-04T11:09:21.648Z,12.57
2022-11-04T11:11:51.782Z,16.70
2022-11-04T11:14:28.626Z,12.07
2022-11-04T11:16:57.918Z,12.93
2022-11-04T11:19:25.936Z,12.00
2022-11-04T11:21:56.527Z,10.32
2022-11-04T11:24:33.984Z,12.98
2022-11-04T11:27:11.961Z,8.88
2022-11-04T11:29:42.362Z,11.10
2022-11-04T11:32:31.931Z,10.93
2022-11-04T11:35:04.313Z,10.73
2022-11-04T11:37:34.247Z,15.80
2022-11-04T11:40:02.013Z,12.63
2022-11-04T11:42:30.561Z,19.55
2022-11-04T11:45:00.246Z,15.15
2022-11-04T11:47:30.557Z,12.40
2022-11-04T11:50:34.611Z,11.20
2022-11-04T11:53:24.492Z,16.98
2022-11-04T11:56:09.705Z,14.48
2022-11-04T12:01:47.100Z,16.08
2022-11-04T12:10:18.611Z,10.98
2022-11-04T12:13:18.464Z,5.90
2022-11-04T12:15:59.908Z,13.20
2022-11-04T12:19:04.788Z,11.32
2022-11-04T12:21:45.525Z,7.53
2022-11-04T12:24:42.978Z,8.27
2022-11-04T12:27:32.293Z,8.23
2022-11-04T12:30:12.744Z,14.80
2022-11-04T12:33:05.556Z,6.57
2022-11-04T12:36:03.132Z,13.30
2022-11-04T12:38:49.312Z,12.80
2022-11-04T12:41:58.794Z,13.60
2022-11-04T12:44:36.439Z,12.32
2022-11-04T12:47:31.390Z,16.48
2022-11-04T12:50:36.257Z,13.35
2022-11-04T12:53:24.038Z,9.55
2022-11-04T12:56:06.327Z,7.30
2022-11-04T12:58:40.748Z,5.07
2022-11-04T13:01:18.813Z,10.95
2022-11-04T13:04:10.368Z,5.10
2022-11-04T13:06:49.431Z,5.72
2022-11-04T13:09:30.745Z,5.45
2022-11-04T13:12:17.224Z,7.53
2022-11-04T13:14:51.393Z,3.85
2022-11-04T13:17:26.325Z,5.15
2022-11-04T13:19:58.629Z,7.05
2022-11-04T13:22:34.677Z,5.13
2022-11-04T13:25:15.020Z,2.95
2022-11-04T13:27:47.743Z,2.97
2022-11-04T13:30:36.300Z,4.32
2022-11-04T13:33:29.895Z,2.80
2022-11-04T13:36:02.613Z,4.55
2022-11-04T13:38:40.413Z,3.35
2022-11-04T13:41:13.463Z,6.80
2022-11-04T13:43:50.503Z,2.47
2022-11-04T13:46:30.227Z,3.13
2022-11-04T13:49:30.347Z,3.05
2022-11-04T13:52:10.227Z,1.42
2022-11-04T13:54:46.744Z,4.80
2022-11-04T13:57:23.845Z,4.35
2022-11-04T14:00:13.182Z,2.80
2022-11-04T14:02:44.308Z,3.08
2022-11-04T14:05:31.396Z,4.30
2022-11-04T14:08:02.201Z,1.63
2022-11-04T14:10:51.109Z,6.03
2022-11-04T14:13:31.549Z,7.65
2022-11-04T14:16:03.822Z,6.40
2022-11-04T14:18:35.593Z,4.45
2022-11-04T14:21:14.332Z,6.28
2022-11-04T14:23:48.201Z,3.60
2022-11-04T14:26:18.571Z,3.40
2022-11-04T14:28:50.012Z,5.28
2022-11-04T14:31:37.520Z,4.30
2022-11-04T14:34:06.382Z,3.10
2022-11-04T14:36:41.588Z,4.68
2022-11-04T14:39:11.816Z,3.97
2022-11-04T14:41:53.390Z,5.10
2022-11-04T14:44:26.921Z,3.90
2022-11-04T14:47:02.504Z,4.15
2022-11-04T14:49:41.508Z,7.10
2022-11-04T14:52:28.953Z,3.15
2022-11-04T14:55:14.246Z,3.45
2022-11-04T14:57:53.358Z,2.35
2022-11-04T15:00:22.320Z,3.67
2022-11-04T15:04:08.804Z,8.10
2022-11-04T15:06:11.686Z,3.58
2022-11-04T15:08:45.681Z,4.85
2022-11-04T15:11:45.282Z,1.95
2022-11-04T15:14:25.961Z,7.03
2022-11-04T15:16:59.060Z,7.10
2022-11-04T15:19:30.478Z,8.70
2022-11-04T15:22:01.158Z,2.03
2022-11-04T15:24:29.121Z,5.30
2022-11-04T15:27:05.208Z,6.57
2022-11-04T15:29:32.846Z,3.40
2022-11-04T15:32:05.098Z,4.35
2022-11-04T15:34:34.512Z,3.45
2022-11-04T15:37:05.631Z,1.85
2022-11-04T15:39:37.878Z,5.55
2022-11-04T15:42:29.569Z,6.85
2022-11-04T15:44:57.389Z,5.20
2022-11-04T15:47:29.383Z,8.48
2022-11-04T15:50:16.819Z,6.72
2022-11-04T15:53:09.565Z,3.30
2022-11-04T15:55:38.237Z,2.92
2022-11-04T15:58:06.002Z,5.47
2022-11-04T16:00:35.024Z,4.50
2022-11-04T16:03:03.358Z,5.82
2022-11-04T16:05:35.764Z,5.32
2022-11-04T16:08:27.905Z,4.88
2022-11-04T16:11:16.755Z,5.97
2022-11-04T16:13:45.655Z,6.22
2022-11-04T16:16:25.691Z,3.33
2022-11-04T16:18:56.302Z,3.60
2022-11-04T16:21:25.978Z,2.80
2022-11-04T16:24:00.853Z,2.88
2022-11-04T16:26:32.046Z,2.97
2022-11-04T16:29:02.121Z,2.55
2022-11-04T16:31:37.717Z,2.97
2022-11-04T16:34:11.372Z,3.75
2022-11-04T16:36:39.599Z,2.53
2022-11-04T16:39:08.935Z,4.63
2022-11-04T16:41:39.674Z,2.97
2022-11-04T16:44:20.929Z,2.58
2022-11-04T16:46:48.830Z,11.02
2022-11-04T16:49:18.750Z,3.83
2022-11-04T16:51:51.085Z,2.25
2022-11-04T16:54:18.669Z,4.75
2022-11-04T16:56:46.189Z,5.35
2022-11-04T16:59:13.696Z,4.22
2022-11-04T17:01:41.449Z,8.52
2022-11-04T17:04:09.236Z,6.15
2022-11-04T17:06:37.449Z,11.73
2022-11-04T17:09:11.126Z,6.43
2022-11-04T17:11:38.598Z,3.87
2022-11-04T17:14:06.066Z,2.78
2022-11-04T17:16:33.547Z,7.15
2022-11-04T17:19:01.128Z,5.43
2022-11-04T17:21:28.802Z,4.43
2022-11-04T17:23:56.618Z,7.07
2022-11-04T17:26:24.207Z,6.70
2022-11-04T17:28:51.803Z,5.07
2022-11-04T17:31:20.292Z,5.35
2022-11-04T17:33:48.172Z,8.30
2022-11-04T17:36:19.420Z,8.07
2022-11-04T17:38:47.489Z,7.00
2022-11-04T17:41:33.786Z,8.52
2022-11-04T17:44:01.622Z,5.20
2022-11-04T17:46:39.534Z,4.82
2022-11-04T17:49:17.141Z,7.28
2022-11-04T17:51:47.617Z,5.38
2022-11-04T17:54:15.567Z,12.63
2022-11-04T17:56:43.538Z,7.07
2022-11-04T17:59:12.665Z,5.65
2022-11-04T18:01:41.446Z,5.80
2022-11-04T18:04:14.310Z,5.53
2022-11-04T18:06:41.875Z,6.88
2022-11-04T18:09:12.217Z,9.85
2022-11-04T18:11:58.191Z,11.15
2022-11-04T18:14:25.896Z,11.25
2022-11-04T18:16:53.616Z,7.72
2022-11-04T18:19:23.165Z,13.75
2022-11-04T18:21:51.257Z,8.60
2022-11-04T18:24:19.557Z,6.40
2022-11-04T18:26:47.898Z,7.22
2022-11-04T18:29:15.978Z,6.45
2022-11-04T18:31:49.086Z,5.90
2022-11-04T18:34:19.722Z,7.47
2022-11-04T18:36:48.871Z,8.38
2022-11-04T18:39:18.059Z,8.13
2022-11-04T18:41:46.029Z,6.60
2022-11-04T18:44:18.376Z,6.85
2022-11-04T18:46:46.865Z,15.15
2022-11-04T18:49:15.305Z,7.43
2022-11-04T18:51:43.108Z,5.95
2022-11-04T18:54:12.365Z,14.50
2022-11-04T18:56:39.882Z,7.53
2022-11-04T18:59:14.830Z,7.38
2022-11-04T19:01:43.393Z,6.32
2022-11-04T19:04:11.655Z,10.27
2022-11-04T19:06:44.147Z,9.55
2022-11-04T19:09:44.793Z,8.55
2022-11-04T19:12:20.096Z,5.38
2022-11-04T19:14:47.588Z,5.05
2022-11-04T19:17:15.448Z,10.38
2022-11-04T19:19:43.170Z,10.95
2022-11-04T19:22:11.909Z,8.20
2022-11-04T19:24:40.171Z,11.68
2022-11-04T19:27:07.954Z,11.80
2022-11-04T19:29:35.718Z,17.95
2022-11-04T19:32:03.434Z,11.95
2022-11-04T19:34:31.527Z,19.33
2022-11-04T19:36:59.262Z,17.80
2022-11-04T19:39:26.833Z,24.42
2022-11-04T19:42:12.646Z,22.77
2022-11-04T19:44:40.422Z,25.92
2022-11-04T19:47:09.426Z,22.35
2022-11-04T19:49:37.165Z,83.47
2022-11-04T19:52:04.996Z,161.77
2022-11-04T19:54:32.592Z,96.35
2022-11-04T19:57:00.212Z,49.15
2022-11-04T19:59:27.654Z,36.13
2022-11-04T20:01:55.112Z,28.25
2022-11-04T20:04:22.733Z,25.40
2022-11-04T20:06:50.836Z,26.20
2022-11-04T20:09:18.776Z,29.02
2022-11-04T20:12:04.656Z,20.52
2022-11-04T20:14:32.600Z,21.83
2022-11-04T20:17:00.191Z,21.83
2022-11-04T20:19:30.314Z,24.95
2022-11-04T20:21:58.398Z,27.95
2022-11-04T20:24:26.192Z,39.78
2022-11-04T20:26:53.989Z,34.45
2022-11-04T20:29:21.747Z,25.25
2022-11-04T20:31:49.275Z,50.63
2022-11-04T20:34:17.082Z,39.60
2022-11-04T20:36:44.773Z,32.10
2022-11-04T20:39:17.566Z,40.92
2022-11-04T20:41:46.208Z,34.65
2022-11-04T20:44:15.382Z,42.00
2022-11-04T20:46:44.343Z,36.65
2022-11-04T20:49:12.736Z,52.15
2022-11-04T20:51:53.343Z,42.83
2022-11-04T20:54:22.810Z,49.83
2022-11-04T20:56:50.708Z,36.50
2022-11-04T20:59:18.638Z,32.30
2022-11-04T21:01:47.732Z,59.00
2022-11-04T21:04:19.164Z,70.45
2022-11-04T21:06:48.614Z,51.30
2022-11-04T21:09:17.955Z,47.85
2022-11-04T21:11:45.784Z,42.63
2022-11-04T21:14:15.325Z,41.47
2022-11-04T21:16:43.933Z,41.00
2022-11-04T21:19:12.269Z,38.53
2022-11-04T21:21:41.959Z,33.60
2022-11-04T21:24:12.206Z,38.53
2022-11-04T21:26:43.283Z,28.15
2022-11-04T21:29:14.661Z,29.92
2022-11-04T21:31:43.099Z,34.53
2022-11-04T21:34:11.410Z,26.88
2022-11-04T21:36:39.511Z,31.45
2022-11-04T21:39:07.585Z,34.60
2022-11-04T21:41:37.519Z,40.25
2022-11-04T21:44:10.048Z,43.08
2022-11-04T21:46:37.713Z,51.20
2022-11-04T21:49:05.451Z,46.58
2022-11-04T21:51:34.701Z,44.67
2022-11-04T21:54:07.261Z,33.90
2022-11-04T21:56:35.310Z,36.90
2022-11-04T21:59:06.965Z,38.15
2022-11-04T22:01:34.881Z,38.63
2022-11-04T22:04:06.322Z,41.10
2022-11-04T22:06:35.664Z,40.38
2022-11-04T22:09:06.263Z,35.67
2022-11-04T22:11:37.600Z,36.70
2022-11-04T22:14:08.544Z,32.75
2022-11-04T22:16:39.056Z,35.28
2022-11-04T22:19:09.060Z,28.55
2022-11-04T22:21:40.288Z,32.47
2022-11-04T22:24:14.046Z,30.23
2022-11-04T22:26:42.517Z,30.17
2022-11-04T22:29:11.097Z,22.02
2022-11-04T22:31:41.677Z,22.48
2022-11-04T22:34:10.105Z,21.88
2022-11-04T22:36:38.344Z,25.02
2022-11-04T22:39:08.355Z,26.80
2022-11-04T22:41:38.362Z,25.27
2022-11-04T22:44:06.274Z,27.85
2022-11-04T22:46:35.364Z,28.65
2022-11-04T22:49:03.067Z,36.53
2022-11-04T22:51:31.758Z,27.85
2022-11-04T22:54:06.412Z,21.27
2022-11-04T22:56:36.285Z,26.33
2022-11-04T22:59:04.774Z,25.60
2022-11-04T23:01:34.242Z,23.35
2022-11-04T23:04:02.889Z,22.55
2022-11-04T23:06:31.691Z,17.48
2022-11-04T23:09:00.706Z,24.33
2022-11-04T23:11:48.274Z,19.15
2022-11-04T23:14:36.965Z,19.58
2022-11-04T23:17:34.818Z,21.52
2022-11-04T23:20:05.377Z,26.40
2022-11-04T23:22:51.384Z,18.65
2022-11-04T23:25:19.492Z,26.15
2022-11-04T23:28:10.139Z,16.02
2022-11-04T23:30:43.032Z,17.92
2022-11-04T23:33:14.903Z,19.42
2022-11-04T23:36:04.001Z,20.30
2022-11-04T23:38:32.389Z,15.23
2022-11-04T23:41:21.748Z,18.17
2022-11-04T23:43:49.600Z,19.63
2022-11-04T23:46:42.277Z,19.38
2022-11-04T23:49:32.028Z,20.02
2022-11-04T23:52:18.401Z,18.33
2022-11-04T23:55:04.500Z,18.23
2022-11-04T23:57:50.612Z,21.17
